Time;durP1;ratioP1;P1;durP2;ratioP2;P2;SDS_P1;SDS_P2;PMS_P1;PMS_P2;Temp;Humidity;BMP_temperature;BMP_pressure;BME280_temperature;BME280_humidity;BME280_pressure;Samples;Min_cycle;Max_cycle;Signal;HPM_P1;HPM_P2
2021/05/09 00:01:24;;;;;;;1999.90;999.90;;;;;;;14.26;100.00;-18287.69;4924733;29;20225;-30
2021/05/09 00:04:10;;;;;;;1999.90;999.90;;;;;;;14.07;100.00;-18282.91;4926616;29;20266;-31
2021/05/09 00:07:00;;;;;;;1999.90;999.90;;;;;;;14.30;100.00;-18288.91;4923194;29;20719;-30
2021/05/09 00:09:47;;;;;;;1999.90;999.90;;;;;;;14.29;100.00;-18288.50;4923617;29;20297;-30
2021/05/09 00:12:32;;;;;;;1999.90;999.90;;;;;;;14.35;100.00;-18290.09;4922802;29;20209;-29
2021/05/09 00:15:22;;;;;;;1999.90;999.90;;;;;;;14.29;100.00;-18288.50;4922723;29;20608;-29
2021/05/09 00:18:08;;;;;;;1999.90;999.90;;;;;;;14.41;100.00;-18291.69;4922363;29;20481;-30
2021/05/09 00:20:57;;;;;;;1999.90;999.90;;;;;;;14.19;100.00;-18285.84;4923296;29;20201;-30
2021/05/09 00:23:43;;;;;;;1999.90;999.90;;;;;;;14.18;100.00;-18285.56;4933036;29;20226;-30
2021/05/09 00:26:34;;;;;;;1999.90;999.90;;;;;;;14.32;100.00;-18289.31;4921980;29;20233;-30
2021/05/09 00:29:20;;;;;;;1999.90;999.90;;;;;;;14.33;100.00;-18289.69;4922139;29;20240;-30
2021/05/09 00:32:06;;;;;;;1999.90;999.90;;;;;;;14.21;100.00;-18286.38;4923167;29;20201;-29
2021/05/09 00:34:56;;;;;;;1999.90;999.90;;;;;;;14.23;100.00;-18287.03;4922342;29;20221;-29
2021/05/09 00:37:42;;;;;;;1999.90;999.90;;;;;;;14.23;100.00;-18287.03;4922148;29;20295;-30
2021/05/09 00:40:29;;;;;;;1999.90;999.90;;;;;;;14.19;100.00;-18285.84;4924313;29;20221;-30
2021/05/09 00:43:17;;;;;;;1999.90;999.90;;;;;;;14.25;100.00;-18287.44;4922623;29;20310;-30
2021/05/09 00:46:09;;;;;;;1999.90;999.90;;;;;;;14.38;100.00;-18290.91;4927427;29;20233;-30
2021/05/09 00:49:03;;;;;;;1999.90;999.90;;;;;;;14.23;100.00;-18287.03;4931772;29;20270;-30
2021/05/09 00:51:55;;;;;;;1999.90;999.90;;;;;;;14.49;100.00;-18293.84;4929556;29;20287;-30
2021/05/09 00:54:51;;;;;;;1999.90;999.90;;;;;;;14.19;100.00;-18285.84;4931275;29;20198;-30
2021/05/09 00:57:40;;;;;;;1999.90;999.90;;;;;;;14.25;100.00;-18287.56;4930299;29;20258;-30
2021/05/09 01:00:27;;;;;;;1999.90;999.90;;;;;;;14.21;100.00;-18286.38;4921432;29;20322;-29
2021/05/09 01:03:15;;;;;;;1999.90;999.90;;;;;;;14.06;100.00;-18282.63;4922218;29;20273;-30
2021/05/09 01:06:02;;;;;;;1999.90;999.90;;;;;;;14.18;100.00;-18285.56;4921175;29;20222;-30
2021/05/09 01:08:48;;;;;;;1999.90;999.90;;;;;;;14.17;100.00;-18285.31;4922503;29;20208;-30
2021/05/09 01:11:35;;;;;;;1999.90;999.90;;;;;;;14.13;100.00;-18284.38;4925624;29;20262;-30
2021/05/09 01:14:21;;;;;;;1999.90;999.90;;;;;;;14.08;100.00;-18283.16;4925753;29;20208;-30
2021/05/09 01:17:08;;;;;;;1999.90;999.90;;;;;;;14.03;100.00;-18281.69;4922828;29;20205;-30
2021/05/09 01:20:00;;;;;;;1999.90;999.90;;;;;;;14.04;100.00;-18281.97;4923408;29;20209;-30
2021/05/09 01:22:47;;;;;;;1999.90;999.90;;;;;;;14.11;100.00;-18283.97;4922024;29;20209;-30
2021/05/09 01:25:34;;;;;;;1999.90;999.90;;;;;;;14.11;100.00;-18283.97;4923640;29;20287;-29
2021/05/09 01:28:21;;;;;;;1999.90;999.90;;;;;;;14.14;100.00;-18284.78;4921452;29;20269;-30
2021/05/09 01:31:10;;;;;;;1999.90;999.90;;;;;;;14.18;100.00;-18285.69;4921323;29;20224;-30
2021/05/09 01:33:56;;;;;;;1999.90;999.90;;;;;;;14.10;100.00;-18283.69;4920765;29;20416;-30
2021/05/09 01:36:46;;;;;;;1999.90;999.90;;;;;;;13.97;100.00;-18280.09;4920906;29;20268;-30
2021/05/09 01:39:32;;;;;;;1999.90;999.90;;;;;;;14.15;100.00;-18284.91;4921491;29;20210;-29
2021/05/09 01:42:19;;;;;;;1999.90;999.90;;;;;;;13.99;100.00;-18280.78;4921803;29;20220;-30
2021/05/09 01:45:07;;;;;;;1999.90;999.90;;;;;;;14.00;100.00;-18281.03;4922897;29;20397;-30
2021/05/09 01:47:53;;;;;;;1999.90;999.90;;;;;;;14.08;100.00;-18283.03;4921494;29;20285;-29
2021/05/09 01:50:44;;;;;;;1999.90;999.90;;;;;;;14.00;100.00;-18281.03;4920977;29;20362;-30
2021/05/09 01:53:34;;;;;;;1999.90;999.90;;;;;;;14.04;100.00;-18281.97;4920944;29;20204;-30
2021/05/09 01:56:20;;;;;;;1999.90;999.90;;;;;;;13.90;100.00;-18278.38;4921382;29;20720;-30
2021/05/09 01:59:07;;;;;;;1999.90;999.90;;;;;;;14.06;100.00;-18282.63;4924537;29;20354;-30
2021/05/09 02:01:53;;;;;;;1999.90;999.90;;;;;;;14.03;100.00;-18281.69;4920923;29;20209;-29
2021/05/09 02:04:39;;;;;;;1999.90;999.90;;;;;;;13.99;100.00;-18280.63;4922981;29;20286;-30
2021/05/09 02:07:25;;;;;;;1999.90;999.90;;;;;;;13.92;100.00;-18278.91;4924268;29;20320;-29
2021/05/09 02:10:14;;;;;;;1999.90;999.90;;;;;;;13.93;100.00;-18279.03;4924514;29;20620;-30
2021/05/09 02:13:00;;;;;;;1999.90;999.90;;;;;;;13.76;100.00;-18274.63;4924761;29;20197;-30
2021/05/09 02:15:46;;;;;;;1999.90;999.90;;;;;;;13.74;100.00;-18274.09;4924377;29;20208;-30
2021/05/09 02:18:33;;;;;;;1999.90;999.90;;;;;;;13.76;100.00;-18274.78;4924431;29;20353;-29
2021/05/09 02:21:19;;;;;;;1999.90;999.90;;;;;;;13.64;100.00;-18271.44;4925070;29;20229;-32
2021/05/09 02:24:07;;;;;;;1999.90;999.90;;;;;;;13.65;100.00;-18271.69;4925012;29;20205;-31
2021/05/09 02:26:54;;;;;;;1999.90;999.90;;;;;;;13.66;100.00;-18272.09;4925405;29;20237;-31
2021/05/09 02:29:41;;;;;;;1999.90;999.90;;;;;;;13.55;100.00;-18269.03;4931390;29;20241;-30
2021/05/09 02:32:27;;;;;;;1999.90;999.90;;;;;;;13.61;100.00;-18270.63;4926266;29;20205;-30
2021/05/09 02:35:14;;;;;;;1999.90;999.90;;;;;;;13.43;100.00;-18265.97;4924280;29;20596;-30
2021/05/09 02:38:00;;;;;;;1999.90;999.90;;;;;;;13.49;100.00;-18267.44;4924443;29;20282;-30
2021/05/09 02:40:47;;;;;;;1999.90;999.90;;;;;;;13.55;100.00;-18269.16;4923864;29;20254;-30
2021/05/09 02:43:34;;;;;;;1999.90;999.90;;;;;;;13.59;100.00;-18270.09;4924255;29;20262;-30
2021/05/09 02:46:19;;;;;;;1999.90;999.90;;;;;;;13.53;100.00;-18268.50;4934156;29;20310;-30
2021/05/09 02:49:06;;;;;;;1999.90;999.90;;;;;;;13.67;100.00;-18272.38;4924178;29;20205;-30
2021/05/09 02:51:51;;;;;;;1999.90;999.90;;;;;;;13.59;100.00;-18270.09;4924735;29;20353;-30
2021/05/09 02:54:38;;;;;;;1999.90;999.90;;;;;;;13.64;100.00;-18271.56;4923652;29;20216;-30
2021/05/09 02:57:23;;;;;;;1999.90;999.90;;;;;;;13.65;100.00;-18271.84;4924167;29;20221;-30
2021/05/09 03:00:12;;;;;;;1999.90;999.90;;;;;;;13.79;100.00;-18275.44;4924252;29;20209;-30
2021/05/09 03:03:10;;;;;;;1999.90;999.90;;;;;;;13.81;100.00;-18275.97;4927583;29;20201;-30
2021/05/09 03:05:56;;;;;;;1999.90;999.90;;;;;;;13.69;100.00;-18272.78;4924617;29;20217;-30
2021/05/09 03:08:43;;;;;;;1999.90;999.90;;;;;;;13.54;100.00;-18268.78;4923862;29;20446;-30
2021/05/09 03:11:31;;;;;;;1999.90;999.90;;;;;;;13.54;100.00;-18268.91;4923657;29;20205;-30
2021/05/09 03:14:18;;;;;;;1999.90;999.90;;;;;;;13.67;100.00;-18272.25;4923889;29;20293;-30
2021/05/09 03:17:05;;;;;;;1999.90;999.90;;;;;;;13.74;100.00;-18274.09;4922617;29;20201;-30
2021/05/09 03:19:51;;;;;;;1999.90;999.90;;;;;;;13.68;100.00;-18272.63;4924537;29;20207;-30
2021/05/09 03:22:37;;;;;;;1999.90;999.90;;;;;;;13.84;100.00;-18276.63;4923795;29;20221;-31
2021/05/09 03:25:23;;;;;;;1999.90;999.90;;;;;;;13.70;100.00;-18273.16;4923706;29;20576;-30
2021/05/09 03:28:10;;;;;;;1999.90;999.90;;;;;;;13.77;100.00;-18274.91;4923411;29;20616;-30
2021/05/09 03:30:56;;;;;;;1999.90;999.90;;;;;;;13.79;100.00;-18275.44;4923355;29;20197;-30
2021/05/09 03:33:43;;;;;;;1999.90;999.90;;;;;;;13.72;100.00;-18273.72;4926089;29;20209;-30
2021/05/09 03:36:30;;;;;;;1999.90;999.90;;;;;;;13.70;100.00;-18273.16;4923806;29;20197;-30
2021/05/09 03:39:15;;;;;;;1999.90;999.90;;;;;;;13.88;100.00;-18277.84;4924790;29;20205;-30
2021/05/09 03:42:01;;;;;;;1999.90;999.90;;;;;;;13.79;100.00;-18275.44;4932453;29;20205;-30
2021/05/09 03:44:48;;;;;;;1999.90;999.90;;;;;;;13.77;100.00;-18274.91;4931004;29;20214;-30
2021/05/09 03:47:35;;;;;;;1999.90;999.90;;;;;;;13.79;100.00;-18275.44;4922707;29;20237;-30
2021/05/09 03:50:22;;;;;;;1999.90;999.90;;;;;;;13.98;100.00;-18280.50;4922795;29;20201;-30
2021/05/09 03:53:08;;;;;;;1999.90;999.90;;;;;;;13.91;100.00;-18278.63;4924968;29;20205;-31
2021/05/09 03:55:54;;;;;;;1999.90;999.90;;;;;;;13.84;100.00;-18276.78;4923973;29;20621;-30
2021/05/09 03:58:40;;;;;;;1999.90;999.90;;;;;;;13.96;100.00;-18279.97;4922286;29;20226;-30
2021/05/09 04:01:26;;;;;;;1999.90;999.90;;;;;;;13.80;100.00;-18275.84;4928070;29;20537;-31
2021/05/09 04:04:13;;;;;;;1999.90;999.90;;;;;;;13.80;100.00;-18275.69;4924924;29;20604;-31
2021/05/09 04:07:00;;;;;;;1999.90;999.90;;;;;;;13.83;100.00;-18276.50;4923638;29;20234;-30
2021/05/09 04:09:46;;;;;;;1999.90;999.90;;;;;;;13.75;100.00;-18274.38;4925202;29;20201;-32
2021/05/09 04:12:32;;;;;;;1999.90;999.90;;;;;;;13.95;100.00;-18279.56;4922397;29;20308;-31
2021/05/09 04:15:18;;;;;;;1999.90;999.90;;;;;;;13.88;100.00;-18277.84;4923013;29;20205;-31
2021/05/09 04:18:05;;;;;;;1999.90;999.90;;;;;;;13.90;100.00;-18278.38;4925611;29;20221;-31
2021/05/09 04:20:50;;;;;;;1999.90;999.90;;;;;;;13.89;100.00;-18278.09;4924138;29;20213;-30
2021/05/09 04:23:37;;;;;;;1999.90;999.90;;;;;;;13.87;100.00;-18277.56;4924056;29;20213;-31
2021/05/09 04:26:23;;;;;;;1999.90;999.90;;;;;;;14.11;100.00;-18283.84;4925362;29;20631;-32
2021/05/09 04:29:09;;;;;;;1999.90;999.90;;;;;;;14.09;100.00;-18283.44;4922149;29;20237;-30
2021/05/09 04:31:55;;;;;;;1999.90;999.90;;;;;;;14.22;100.00;-18286.63;4922647;29;20209;-31
2021/05/09 04:34:41;;;;;;;1999.90;999.90;;;;;;;14.12;100.00;-18284.25;4922354;29;20269;-31
2021/05/09 04:37:27;;;;;;;1999.90;999.90;;;;;;;14.22;100.00;-18286.63;4922220;29;20205;-31
2021/05/09 04:40:15;;;;;;;1999.90;999.90;;;;;;;14.16;100.00;-18285.03;4921808;29;20205;-31
2021/05/09 04:43:05;;;;;;;1999.90;999.90;;;;;;;14.29;100.00;-18288.63;4922496;29;20616;-31
2021/05/09 04:45:52;;;;;;;1999.90;999.90;;;;;;;14.22;100.00;-18286.75;4921959;29;20209;-30
2021/05/09 04:48:39;;;;;;;1999.90;999.90;;;;;;;14.22;100.00;-18286.75;4922115;29;20193;-30
2021/05/09 04:51:25;;;;;;;1999.90;999.90;;;;;;;14.22;100.00;-18286.63;4922128;29;20205;-30
2021/05/09 04:54:16;;;;;;;1999.90;999.90;;;;;;;14.33;100.00;-18289.56;4928382;29;20210;-30
2021/05/09 04:57:04;;;;;;;1999.90;999.90;;;;;;;14.82;100.00;-18302.63;4922827;29;20205;-30
2021/05/09 04:59:49;;;;;;;1999.90;999.90;;;;;;;14.78;100.00;-18301.56;4922079;29;20226;-30
2021/05/09 05:02:38;;;;;;;1999.90;999.90;;;;;;;14.94;100.00;-18305.56;4922068;29;20620;-30
2021/05/09 05:05:27;;;;;;;1999.90;999.90;;;;;;;15.03;100.00;-18308.09;4921621;29;20202;-30
2021/05/09 05:08:19;;;;;;;1999.90;999.90;;;;;;;15.33;100.00;-18315.94;4922899;29;20327;-30
2021/05/09 05:11:06;;;;;;;1999.90;999.90;;;;;;;15.54;100.00;-18321.41;4923792;29;20292;-30
2021/05/09 05:13:53;;;;;;;1999.90;999.90;;;;;;;15.46;100.00;-18319.41;4923196;29;20596;-30
2021/05/09 05:16:38;;;;;;;1999.90;999.90;;;;;;;15.55;100.00;-18321.53;4922011;29;20357;-31
2021/05/09 05:19:24;;;;;;;1999.90;999.90;;;;;;;15.63;100.00;-18323.66;4921587;29;20338;-30
2021/05/09 05:22:10;;;;;;;1999.90;999.90;;;;;;;15.80;100.00;-18328.19;4921425;29;20621;-30
2021/05/09 05:24:56;;;;;;;1999.90;999.90;;;;;;;15.91;100.00;-18331.13;4921169;29;20261;-30
2021/05/09 05:27:46;;;;;;;1999.90;999.90;;;;;;;15.98;100.00;-18333.00;4921256;29;20384;-30
2021/05/09 05:30:36;;;;;;;1999.90;999.90;;;;;;;16.22;100.00;-18339.09;4920962;29;20218;-30
2021/05/09 05:33:28;;;;;;;1999.90;999.90;;;;;;;16.19;100.00;-18338.44;4922485;29;20614;-30
2021/05/09 05:36:14;;;;;;;1999.90;999.90;;;;;;;16.31;100.00;-18341.63;4926625;29;20262;-31
2021/05/09 05:39:00;;;;;;;1999.90;999.90;;;;;;;16.49;100.00;-18346.28;4920747;29;20216;-30
2021/05/09 05:41:46;;;;;;;1999.90;999.90;;;;;;;16.51;100.00;-18346.97;4921091;29;20684;-30
2021/05/09 05:44:32;;;;;;;1999.90;999.90;;;;;;;16.65;100.00;-18350.56;4920684;29;20207;-30
2021/05/09 05:47:19;;;;;;;1999.90;999.90;;;;;;;16.97;99.77;-18358.81;4921871;29;20551;-31
2021/05/09 05:50:06;;;;;;;1999.90;999.90;;;;;;;16.93;100.00;-18357.75;4922759;29;20204;-31
2021/05/09 05:52:52;;;;;;;1999.90;999.90;;;;;;;17.97;91.53;-18385.13;4921132;29;20217;-30
2021/05/09 05:55:38;;;;;;;1999.90;999.90;;;;;;;18.44;86.03;-18397.34;4921356;29;20205;-31
2021/05/09 05:58:24;;;;;;;1999.90;999.90;;;;;;;18.92;81.38;-18410.09;4920852;29;20611;-31
2021/05/09 06:01:10;;;;;;;1999.90;999.90;;;;;;;19.01;82.27;-18412.34;4921320;29;20209;-30
2021/05/09 06:04:01;;;;;;;1999.90;999.90;;;;;;;18.35;86.74;-18394.94;4920553;29;20207;-30
2021/05/09 06:06:47;;;;;;;1999.90;999.90;;;;;;;18.54;82.97;-18400.13;4921323;29;20231;-31
2021/05/09 06:09:34;;;;;;;1999.90;999.90;;;;;;;18.54;84.37;-18400.00;4924597;29;20229;-30
2021/05/09 06:12:23;;;;;;;1999.90;999.90;;;;;;;19.29;79.77;-18419.63;4924019;29;20205;-31
2021/05/09 06:15:15;;;;;;;1999.90;999.90;;;;;;;18.98;82.44;-18411.53;4923649;29;20202;-31
2021/05/09 06:18:01;;;;;;;1999.90;999.90;;;;;;;18.27;85.81;-18392.81;4923790;29;20202;-31
2021/05/09 06:20:48;;;;;;;1999.90;999.90;;;;;;;18.58;86.65;-18401.19;4922995;29;20266;-30
2021/05/09 06:23:38;;;;;;;1999.90;999.90;;;;;;;19.12;83.23;-18415.25;4921205;29;20216;-31
2021/05/09 06:26:24;;;;;;;1999.90;999.90;;;;;;;19.06;84.86;-18413.53;4930930;29;20201;-31
2021/05/09 06:29:11;;;;;;;1999.90;999.90;;;;;;;19.64;81.49;-18428.78;4928747;29;20292;-42
2021/05/09 06:32:00;;;;;;;1999.90;999.90;;;;;;;19.44;81.28;-18423.63;4920949;29;20312;-30
2021/05/09 06:34:49;;;;;;;1999.90;999.90;;;;;;;19.15;80.74;-18415.91;4923504;29;20327;-30
2021/05/09 06:37:36;;;;;;;1999.90;999.90;;;;;;;19.02;84.15;-18412.47;4920802;29;20314;-31
2021/05/09 06:40:25;;;;;;;1999.90;999.90;;;;;;;20.35;77.15;-18447.22;4922395;29;20560;-31
2021/05/09 06:43:14;;;;;;;1999.90;999.90;;;;;;;19.82;77.19;-18433.44;4930089;29;20213;-30
2021/05/09 06:46:01;;;;;;;1999.90;999.90;;;;;;;20.19;78.18;-18443.25;4920657;29;20360;-30
2021/05/09 06:48:47;;;;;;;1999.90;999.90;;;;;;;19.90;79.05;-18435.56;4902792;29;20210;-30
2021/05/09 06:51:34;;;;;;;1999.90;999.90;;;;;;;20.59;73.75;-18453.59;4905905;29;20353;-30
2021/05/09 06:54:21;;;;;;;1999.90;999.90;;;;;;;21.25;70.73;-18470.94;4907383;29;20214;-31
2021/05/09 06:57:09;;;;;;;1999.90;999.90;;;;;;;21.25;72.06;-18470.81;4908480;29;20202;-31
2021/05/09 06:59:55;;;;;;;1999.90;999.90;;;;;;;20.58;72.19;-18453.31;4908636;29;20209;-31
2021/05/09 07:02:42;;;;;;;1999.90;999.90;;;;;;;21.41;67.46;-18475.03;4906288;29;20204;-31
2021/05/09 07:05:29;;;;;;;1999.90;999.90;;;;;;;20.99;71.36;-18464.03;4904950;29;20563;-31
2021/05/09 07:08:15;;;;;;;1999.90;999.90;;;;;;;21.89;68.72;-18487.47;4904950;29;20255;-30
2021/05/09 07:11:03;;;;;;;1999.90;999.90;;;;;;;20.69;75.36;-18456.22;4905926;29;20217;-30
2021/05/09 07:13:49;;;;;;;1999.90;999.90;;;;;;;22.02;68.06;-18490.78;4905289;29;20214;-31
2021/05/09 07:16:37;;;;;;;1999.90;999.90;;;;;;;21.30;73.99;-18472.13;4905470;29;20206;-31
2021/05/09 07:19:27;;;;;;;1999.90;999.90;;;;;;;21.02;78.41;-18464.72;4906452;29;20309;-29
2021/05/09 07:22:26;;;;;;;1999.90;999.90;;;;;;;20.42;82.26;-18449.06;4905700;29;20342;-31
2021/05/09 07:25:13;;;;;;;1999.90;999.90;;;;;;;21.06;79.08;-18465.75;4907563;29;20233;-31
2021/05/09 07:28:10;;;;;;;1999.90;999.90;;;;;;;20.78;80.79;-18458.47;4905800;29;20516;-31
2021/05/09 07:31:00;;;;;;;1999.90;999.90;;;;;;;22.31;71.63;-18498.59;4905402;29;20214;-29
2021/05/09 07:33:48;;;;;;;1999.90;999.90;;;;;;;21.38;75.23;-18474.25;4905870;29;20210;-31
2021/05/09 07:36:38;;;;;;;1999.90;999.90;;;;;;;22.60;70.86;-18506.13;4905605;29;20214;-31
2021/05/09 07:39:28;;;;;;;1999.90;999.90;;;;;;;21.51;74.05;-18477.69;4904582;29;20823;-31
2021/05/09 07:42:17;;;;;;;1999.90;999.90;;;;;;;22.21;73.72;-18495.81;4904808;29;20267;-31
2021/05/09 07:45:14;;;;;;;1999.90;999.90;;;;;;;22.64;68.89;-18507.06;4905714;29;20480;-31
2021/05/09 07:48:00;;;;;;;1999.90;999.90;;;;;;;21.84;73.11;-18486.28;4905136;29;20377;-30
2021/05/09 07:50:46;;;;;;;1999.90;999.90;;;;;;;21.70;72.36;-18482.59;4904656;29;20799;-31
2021/05/09 07:53:33;;;;;;;1999.90;999.90;;;;;;;22.92;66.96;-18514.47;4914129;29;20209;-31
2021/05/09 07:56:19;;;;;;;1999.90;999.90;;;;;;;22.49;66.50;-18503.09;4923782;29;20217;-31
2021/05/09 07:59:09;;;;;;;1999.90;999.90;;;;;;;22.53;65.36;-18504.16;4922892;29;20299;-30
2021/05/09 08:01:56;;;;;;;1999.90;999.90;;;;;;;22.92;63.89;-18514.34;4911205;29;20640;-31
2021/05/09 08:04:42;;;;;;;1999.90;999.90;;;;;;;22.69;61.46;-18508.50;4919139;29;20691;-31
2021/05/09 08:07:28;;;;;;;1999.90;999.90;;;;;;;23.05;61.39;-18517.63;4923666;29;20233;-31
2021/05/09 08:10:21;;;;;;;1999.90;999.90;;;;;;;22.79;62.28;-18511.03;4926670;29;20205;-30
2021/05/09 08:13:12;;;;;;;1999.90;999.90;;;;;;;22.83;60.44;-18511.97;4928439;29;20349;-31
2021/05/09 08:15:58;;;;;;;1999.90;999.90;;;;;;;23.50;56.28;-18529.53;4915611;29;20209;-31
2021/05/09 08:18:46;;;;;;;1999.90;999.90;;;;;;;23.41;58.06;-18527.16;4928774;29;20297;-31
2021/05/09 08:21:31;;;;;;;1999.90;999.90;;;;;;;22.47;61.67;-18502.56;4922205;29;20202;-30
2021/05/09 08:24:18;;;;;;;1999.90;999.90;;;;;;;22.88;56.93;-18513.41;4911899;29;20210;-30
2021/05/09 08:27:03;;;;;;;1999.90;999.90;;;;;;;23.13;56.88;-18519.88;4903946;29;20334;-30
2021/05/09 08:29:55;;;;;;;1999.90;999.90;;;;;;;23.50;54.39;-18529.53;4910334;29;20330;-30
2021/05/09 08:32:41;;;;;;;1999.90;999.90;;;;;;;24.14;51.54;-18546.03;4917727;29;20212;-30
2021/05/09 08:35:28;;;;;;;1999.90;999.90;;;;;;;24.17;52.29;-18546.97;4922019;29;20595;-30
2021/05/09 08:38:13;;;;;;;1999.90;999.90;;;;;;;25.23;49.60;-18574.41;4915335;29;20271;-31
2021/05/09 08:41:02;;;;;;;1999.90;999.90;;;;;;;25.54;47.17;-18582.47;4909384;29;20209;-30
2021/05/09 08:43:49;;;;;;;1999.90;999.90;;;;;;;25.05;49.42;-18569.94;4903390;29;20214;-31
2021/05/09 08:46:39;;;;;;;1999.90;999.90;;;;;;;24.77;50.92;-18562.53;4903910;29;20205;-30
2021/05/09 08:49:29;;;;;;;1999.90;999.90;;;;;;;24.28;51.75;-18549.75;4906158;29;20265;-30
2021/05/09 08:52:18;;;;;;;1999.90;999.90;;;;;;;24.76;48.91;-18562.16;4923359;29;20209;-30
2021/05/09 08:55:06;;;;;;;1999.90;999.90;;;;;;;25.72;46.59;-18587.19;4903146;29;20266;-30
2021/05/09 08:57:58;;;;;;;1999.90;999.90;;;;;;;24.43;49.24;-18553.56;4916331;29;20201;-31
2021/05/09 09:00:46;;;;;;;1999.90;999.90;;;;;;;24.77;47.23;-18562.41;4922237;29;20482;-30
2021/05/09 09:03:34;;;;;;;1999.90;999.90;;;;;;;24.52;46.72;-18555.94;4903512;29;20221;-30
2021/05/09 09:06:41;;;;;;;1999.90;999.90;;;;;;;24.99;46.35;-18568.34;4905649;29;20206;-31
2021/05/09 09:09:41;;;;;;;1999.90;999.90;;;;;;;24.41;46.94;-18553.03;4904128;29;20688;-31
2021/05/09 09:12:37;;;;;;;1999.90;999.90;;;;;;;25.76;44.85;-18588.13;4909952;29;20213;-30
2021/05/09 09:15:23;;;;;;;1999.90;999.90;;;;;;;25.46;44.28;-18580.34;4923413;29;20201;-30
2021/05/09 09:18:27;;;;;;;1999.90;999.90;;;;;;;25.48;43.84;-18581.00;4921344;29;20300;-31
2021/05/09 09:21:22;;;;;;;1999.90;999.90;;;;;;;25.37;44.53;-18578.25;4922491;29;20205;-30
2021/05/09 09:24:10;;;;;;;1999.90;999.90;;;;;;;25.03;44.26;-18569.28;4903378;29;20199;-30
2021/05/09 09:26:59;;;;;;;1999.90;999.90;;;;;;;25.18;43.54;-18573.09;4903909;29;20292;-30
2021/05/09 09:29:45;;;;;;;1999.90;999.90;;;;;;;26.15;42.21;-18598.41;4912246;29;20236;-31
2021/05/09 09:32:34;;;;;;;1999.90;999.90;;;;;;;25.84;43.30;-18590.38;4922126;29;20205;-30
2021/05/09 09:35:28;;;;;;;1999.90;999.90;;;;;;;25.67;43.24;-18586.03;4921274;29;20330;-31
2021/05/09 09:38:23;;;;;;;1999.90;999.90;;;;;;;26.22;43.49;-18600.25;4904733;29;20202;-31
2021/05/09 09:41:14;;;;;;;1999.90;999.90;;;;;;;26.21;43.92;-18599.97;4914974;29;20493;-31
2021/05/09 09:44:07;;;;;;;1999.90;999.90;;;;;;;26.37;42.81;-18604.19;4920116;29;20208;-30
2021/05/09 09:46:55;;;;;;;1999.90;999.90;;;;;;;26.57;43.42;-18609.22;4906304;29;20206;-31
2021/05/09 09:49:50;;;;;;;1999.90;999.90;;;;;;;27.60;42.44;-18635.91;4919725;29;20212;-31
2021/05/09 09:52:36;;;;;;;1999.90;999.90;;;;;;;26.78;44.13;-18614.72;4922258;29;20217;-29
2021/05/09 09:55:22;;;;;;;1999.90;999.90;;;;;;;25.73;46.23;-18587.59;4920610;29;20296;-29
2021/05/09 09:58:10;;;;;;;1999.90;999.90;;;;;;;25.84;46.22;-18590.38;4905062;29;20628;-29
2021/05/09 10:01:01;;;;;;;1999.90;999.90;;;;;;;25.23;48.78;-18574.53;4902039;29;20697;-30
2021/05/09 10:03:47;;;;;;;1999.90;999.90;;;;;;;25.31;48.44;-18576.53;4902315;29;20704;-31
2021/05/09 10:06:34;;;;;;;1999.90;999.90;;;;;;;26.07;47.80;-18596.44;4909675;29;20261;-31
2021/05/09 10:09:21;;;;;;;1999.90;999.90;;;;;;;26.62;47.83;-18610.53;4920515;29;20608;-29
2021/05/09 10:12:17;;;;;;;1999.90;999.90;;;;;;;26.67;47.36;-18611.97;4918171;29;20619;-30
2021/05/09 10:15:04;;;;;;;1999.90;999.90;;;;;;;27.23;45.85;-18626.31;4917349;29;20210;-30
2021/05/09 10:18:05;;;;;;;1999.90;999.90;;;;;;;27.48;46.73;-18632.91;4907518;29;20206;-31
2021/05/09 10:20:59;;;;;;;1999.90;999.90;;;;;;;27.29;45.25;-18628.03;4905295;29;20611;-32
2021/05/09 10:24:12;;;;;;;1999.90;999.90;;;;;;;27.84;46.03;-18642.09;4901716;29;20214;-30
2021/05/09 10:27:12;;;;;;;1999.90;999.90;;;;;;;27.31;46.59;-18628.41;4913352;29;20201;-30
2021/05/09 10:30:01;;;;;;;1999.90;999.90;;;;;;;27.21;46.46;-18625.78;4907245;29;20765;-31
2021/05/09 10:32:52;;;;;;;1999.90;999.90;;;;;;;26.79;46.51;-18615.00;4921491;29;20217;-31
2021/05/09 10:35:39;;;;;;;1999.90;999.90;;;;;;;26.97;47.52;-18619.59;4925692;29;20220;-30
2021/05/09 10:38:25;;;;;;;1999.90;999.90;;;;;;;27.02;45.88;-18620.91;4918078;29;20206;-30
2021/05/09 10:41:14;;;;;;;1999.90;999.90;;;;;;;27.16;48.46;-18624.59;4919677;29;20214;-30
2021/05/09 10:44:35;;;;;;;1999.90;999.90;;;;;;;27.15;47.81;-18624.22;4912842;29;20238;-31
2021/05/09 10:47:35;;;;;;;1999.90;999.90;;;;;;;28.16;46.03;-18650.50;4907314;29;20309;-31
2021/05/09 10:50:26;;;;;;;1999.90;999.90;;;;;;;27.89;47.22;-18643.41;4906952;29;20204;-30
2021/05/09 10:53:41;;;;;;;1999.90;999.90;;;;;;;28.01;48.18;-18646.69;4905924;29;20285;-30
2021/05/09 10:56:32;;;;;;;1999.90;999.90;;;;;;;28.25;46.32;-18652.88;4925814;29;20284;-31
2021/05/09 10:59:19;;;;;;;1999.90;999.90;;;;;;;27.52;46.25;-18633.81;4915337;29;20587;-30
2021/05/09 11:02:09;;;;;;;1999.90;999.90;;;;;;;28.20;43.96;-18651.56;4908059;29;20670;-31
2021/05/09 11:04:58;;;;;;;1999.90;999.90;;;;;;;28.06;44.91;-18648.00;4905213;29;20339;-30
2021/05/09 11:07:51;;;;;;;1999.90;999.90;;;;;;;27.82;45.79;-18641.72;4904982;29;20234;-30
2021/05/09 11:10:45;;;;;;;1999.90;999.90;;;;;;;27.53;47.86;-18634.22;4919063;29;20217;-31
2021/05/09 11:13:31;;;;;;;1999.90;999.90;;;;;;;27.68;49.24;-18638.16;4925660;29;20226;-30
2021/05/09 11:16:19;;;;;;;1999.90;999.90;;;;;;;28.00;47.50;-18646.31;4926331;29;20201;-30
2021/05/09 11:19:13;;;;;;;1999.90;999.90;;;;;;;28.26;47.27;-18653.00;4907987;29;20205;-31
2021/05/09 11:22:17;;;;;;;1999.90;999.90;;;;;;;28.04;47.98;-18647.34;4905966;29;20209;-31
2021/05/09 11:25:10;;;;;;;1999.90;999.90;;;;;;;28.08;47.79;-18648.41;4914413;29;20208;-30
2021/05/09 11:28:02;;;;;;;1999.90;999.90;;;;;;;27.74;48.45;-18639.75;4916114;29;20234;-31
2021/05/09 11:30:51;;;;;;;1999.90;999.90;;;;;;;27.45;47.96;-18632.09;4922059;29;20292;-31
2021/05/09 11:33:52;;;;;;;1999.90;999.90;;;;;;;27.62;47.68;-18636.56;4920793;29;20238;-30
2021/05/09 11:36:41;;;;;;;1999.90;999.90;;;;;;;28.20;47.14;-18651.56;4921222;29;20207;-30
2021/05/09 11:39:41;;;;;;;1999.90;999.90;;;;;;;27.89;48.45;-18643.53;4923444;29;20775;-30
2021/05/09 11:42:29;;;;;;;1999.90;999.90;;;;;;;27.63;49.06;-18636.84;4921332;29;20209;-30
2021/05/09 11:45:28;;;;;;;1999.90;999.90;;;;;;;28.29;48.12;-18653.94;4923098;29;20208;-31
2021/05/09 11:48:27;;;;;;;1999.90;999.90;;;;;;;28.75;47.85;-18665.88;4919464;29;20239;-30
2021/05/09 11:51:17;;;;;;;1999.90;999.90;;;;;;;28.78;44.73;-18666.69;4922538;29;20242;-31
2021/05/09 11:54:09;;;;;;;1999.90;999.90;;;;;;;29.46;42.50;-18684.16;4925597;29;20577;-31
2021/05/09 11:56:57;;;;;;;1999.90;999.90;;;;;;;28.59;46.15;-18661.69;4922662;29;20289;-31
2021/05/09 11:59:46;;;;;;;1999.90;999.90;;;;;;;27.95;48.46;-18645.13;4908222;29;20210;-30
2021/05/09 12:02:45;;;;;;;1999.90;999.90;;;;;;;28.46;47.31;-18658.28;4922977;29;20201;-30
2021/05/09 12:05:30;;;;;;;1999.90;999.90;;;;;;;28.43;47.18;-18657.63;4907424;29;20600;-31
2021/05/09 12:08:18;;;;;;;1999.90;999.90;;;;;;;28.22;46.85;-18652.09;4918585;29;20236;-34
2021/05/09 12:11:08;;;;;;;1999.90;999.90;;;;;;;28.99;47.74;-18671.94;4923664;29;20209;-31
2021/05/09 12:13:54;;;;;;;1999.90;999.90;;;;;;;28.86;47.80;-18668.66;4922604;29;20228;-31
2021/05/09 12:16:44;;;;;;;1999.90;999.90;;;;;;;28.51;48.45;-18659.44;4916516;29;20219;-31